RCTP

Taiwan Taoyuan International Airport

Taipei, Taiwan
TAF RCTP 181700Z 1818/1924 07015KT 9999 FEW020 TEMPO 1818/1824 06010KT TEMPO 1902/1908 09020G30KT
Issued Valid From Valid To
Jul-18 @ 17:00 UTC
(5 hours ago)
Jul-18 @ 18:00 UTC
(4 hours ago)
Jul-20 @ 00:00 UTC
(-1 days ago)
Jul-18 @ 18:00 to Jul-20 @ 00:00
TAF RCTP 181700Z 1818/1924 07015KT 9999 FEW020
Wind Visibility Clouds
70° at 15 knots 10,000+ meters
  • Few at 2,000' AGL
Temporary Jul-18 @ 18:00 to Jul-19 @ 00:00
TEMPO 1818/1824 06010KT
Wind
60° at 10 knots
Temporary Jul-19 @ 02:00 to Jul-19 @ 08:00
TEMPO 1902/1908 09020G30KT
Wind
90° at 20 knots
 Gusting to 30 knots
TAF RCTP 181700Z 1818/1924 07015KT 9999 FEW020 TEMPO 1818/1824 06010KT TEMPO 1902/1908 09020G30KT
Issued Jul-18 @ 17:00 UTC
(5 hours ago)
Valid From Jul-18 @ 18:00 UTC
(4 hours ago)
Valid To Jul-20 @ 00:00 UTC
(-1 days ago)
Jul-18 @ 18:00 - Jul-20 @ 00:00
Wind Visibility
70° at 15 knots 10,000+ meters
Clouds
  • Few at 2,000' AGL
Temporary Jul-18 @ 18:00 - Jul-19 @ 00:00
Wind
60° at 10 knots
Temporary Jul-19 @ 02:00 - Jul-19 @ 08:00
Wind
90° at 20 knots
 Gusting to 30 knots